createdAt,value
2019-02-20T00:01:20.962Z,6.21
2019-02-20T00:04:08.178Z,6.87
2019-02-20T00:10:02.565Z,6.07
2019-02-20T00:12:50.935Z,5.94
2019-02-20T00:15:37.830Z,5.82
2019-02-20T00:18:25.156Z,5.73
2019-02-20T00:21:12.588Z,5.62
2019-02-20T00:24:01.197Z,6.28
2019-02-20T00:26:48.962Z,5.70
2019-02-20T00:35:49.493Z,5.30
2019-02-20T00:38:36.505Z,5.97
2019-02-20T00:41:24.028Z,5.43
2019-02-20T00:44:17.061Z,5.30
2019-02-20T00:47:05.726Z,5.22
2019-02-20T00:49:52.773Z,5.82
2019-02-20T00:56:01.278Z,6.10
2019-02-20T00:58:48.603Z,6.15
2019-02-20T01:04:41.646Z,5.16
2019-02-20T01:07:28.784Z,5.00
2019-02-20T01:10:16.298Z,4.89
2019-02-20T01:13:04.040Z,4.75
2019-02-20T01:15:51.836Z,4.64
2019-02-20T01:18:39.182Z,4.55
2019-02-20T01:21:26.582Z,4.48
2019-02-20T01:24:14.147Z,4.41
2019-02-20T01:27:02.688Z,4.33
2019-02-20T01:32:56.268Z,4.24
2019-02-20T01:35:43.884Z,4.26
2019-02-20T01:38:31.299Z,4.26
2019-02-20T01:41:19.530Z,4.94
2019-02-20T01:44:06.771Z,4.45
2019-02-20T01:46:54.087Z,4.34
2019-02-20T01:49:42.738Z,4.29
2019-02-20T01:52:29.965Z,5.00
2019-02-20T01:55:17.305Z,4.60
2019-02-20T01:58:04.554Z,4.53
2019-02-20T02:00:51.820Z,4.50
2019-02-20T02:03:39.274Z,4.47
2019-02-20T02:06:26.565Z,4.39
2019-02-20T02:09:13.872Z,4.38
2019-02-20T02:12:01.224Z,5.10
2019-02-20T02:14:48.323Z,4.72
2019-02-20T02:17:36.243Z,4.70
2019-02-20T02:26:37.220Z,4.76
2019-02-20T02:32:30.287Z,4.81
2019-02-20T02:35:18.054Z,4.77
2019-02-20T02:38:12.604Z,4.74
2019-02-20T02:44:07.328Z,4.83
2019-02-20T02:46:54.835Z,4.69
2019-02-20T02:49:42.005Z,5.33
2019-02-20T02:52:28.959Z,4.78
2019-02-20T02:58:22.343Z,4.48
2019-02-20T03:01:09.759Z,4.41
2019-02-20T03:03:57.711Z,4.37
2019-02-20T03:12:58.344Z,4.30
2019-02-20T03:15:45.639Z,4.28
2019-02-20T03:21:39.130Z,4.29
2019-02-20T03:30:42.236Z,4.25
2019-02-20T03:39:41.751Z,4.57
2019-02-20T03:42:29.079Z,4.42
2019-02-20T03:45:19.369Z,4.32
2019-02-20T03:48:08.402Z,4.25
2019-02-20T03:51:13.668Z,4.92
2019-02-20T03:54:00.830Z,4.31
2019-02-20T03:59:55.371Z,4.18
2019-02-20T04:05:54.642Z,4.25
2019-02-20T04:08:40.355Z,4.33
2019-02-20T04:11:27.386Z,4.39
2019-02-20T04:14:15.233Z,4.42
2019-02-20T04:17:02.150Z,4.44
2019-02-20T04:19:49.243Z,4.47
2019-02-20T04:22:36.770Z,4.49
2019-02-20T04:25:31.872Z,4.52
2019-02-20T04:34:40.200Z,4.76
2019-02-20T04:37:27.988Z,4.75
2019-02-20T04:40:15.666Z,4.74
2019-02-20T04:43:06.004Z,4.76
2019-02-20T04:45:54.801Z,4.78
2019-02-20T04:48:42.217Z,4.79
2019-02-20T04:51:29.825Z,4.78
2019-02-20T04:54:21.573Z,4.78
2019-02-20T04:57:11.244Z,4.78
2019-02-20T04:59:58.483Z,4.78
2019-02-20T05:05:51.814Z,4.75
2019-02-20T05:08:38.951Z,4.74
2019-02-20T05:11:28.827Z,4.76
2019-02-20T05:20:27.955Z,4.89
2019-02-20T05:23:15.055Z,4.90
2019-02-20T05:26:02.280Z,4.94
2019-02-20T05:28:52.160Z,4.96
2019-02-20T05:34:48.596Z,5.02
2019-02-20T05:37:35.619Z,5.03
2019-02-20T05:46:36.629Z,5.11
2019-02-20T05:52:41.536Z,5.12
2019-02-20T06:04:50.125Z,5.11
2019-02-20T06:07:42.870Z,5.10
2019-02-20T06:10:42.372Z,5.12
2019-02-20T06:13:32.175Z,5.12
2019-02-20T06:16:20.909Z,5.15
2019-02-20T06:19:08.123Z,5.15
2019-02-20T06:21:55.824Z,5.15
2019-02-20T06:24:44.330Z,5.16
2019-02-20T06:27:45.230Z,5.16
2019-02-20T06:30:32.900Z,5.19
2019-02-20T06:33:22.405Z,5.18
2019-02-20T06:36:10.180Z,5.21
2019-02-20T06:38:57.524Z,5.20
2019-02-20T06:41:45.036Z,5.20
2019-02-20T06:50:52.520Z,5.24
2019-02-20T06:56:50.273Z,5.26
2019-02-20T06:59:37.672Z,5.30
2019-02-20T07:02:25.389Z,5.31
2019-02-20T07:05:34.368Z,6.08
2019-02-20T07:15:17.368Z,5.45
2019-02-20T07:18:07.472Z,5.47
2019-02-20T07:24:21.697Z,5.57
2019-02-20T07:33:43.678Z,5.95
2019-02-20T07:36:31.916Z,6.07
2019-02-20T07:42:27.700Z,6.30
2019-02-20T07:45:15.734Z,6.42
2019-02-20T07:48:02.703Z,6.51
2019-02-20T07:50:51.094Z,7.46
2019-02-20T07:53:38.128Z,6.94
2019-02-20T08:02:40.372Z,6.96
2019-02-20T08:05:27.634Z,6.98
2019-02-20T08:14:29.915Z,7.27
2019-02-20T08:20:23.986Z,7.63
2019-02-20T08:26:17.697Z,7.98
2019-02-20T08:29:07.665Z,8.06
2019-02-20T08:41:15.591Z,8.47
2019-02-20T08:44:03.426Z,8.55
2019-02-20T08:46:50.855Z,8.63
2019-02-20T08:52:47.284Z,8.91
2019-02-20T08:55:35.344Z,9.01
2019-02-20T08:58:23.036Z,9.06
2019-02-20T09:01:12.323Z,9.24
2019-02-20T09:04:00.343Z,9.41
2019-02-20T09:13:00.886Z,10.32
2019-02-20T09:18:56.610Z,10.42
2019-02-20T09:21:44.164Z,11.67
2019-02-20T09:24:38.946Z,11.95
2019-02-20T09:27:27.409Z,11.08
2019-02-20T09:30:14.696Z,12.18
2019-02-20T09:33:02.250Z,11.22
2019-02-20T09:35:50.772Z,10.97
2019-02-20T09:38:38.015Z,11.02
2019-02-20T09:41:29.195Z,12.29
2019-02-20T09:44:16.209Z,12.61
2019-02-20T09:47:18.121Z,11.41
2019-02-20T09:50:05.842Z,11.14
2019-02-20T09:52:53.365Z,11.01
2019-02-20T09:55:50.937Z,10.99
2019-02-20T10:01:36.211Z,10.91
2019-02-20T10:07:29.779Z,11.28
2019-02-20T10:10:16.766Z,12.36
2019-02-20T10:13:05.108Z,11.46
2019-02-20T10:25:11.699Z,11.49
2019-02-20T10:27:59.013Z,11.61
2019-02-20T10:30:46.666Z,11.72
2019-02-20T10:33:33.964Z,11.64
2019-02-20T10:39:27.583Z,11.51
2019-02-20T10:45:21.547Z,12.04
2019-02-20T10:51:16.333Z,12.11
2019-02-20T10:54:04.369Z,13.59
2019-02-20T10:56:51.917Z,12.89
2019-02-20T11:02:45.446Z,14.56
2019-02-20T11:11:45.246Z,12.97
2019-02-20T11:14:32.416Z,12.87
2019-02-20T11:17:22.443Z,12.74
2019-02-20T11:20:10.168Z,12.75
2019-02-20T11:22:57.247Z,12.76
2019-02-20T11:41:17.409Z,13.29
2019-02-20T11:47:24.899Z,13.31
2019-02-20T11:50:26.646Z,13.24
2019-02-20T11:53:14.035Z,13.19
2019-02-20T11:56:01.357Z,13.22
2019-02-20T11:58:48.511Z,13.27
2019-02-20T12:01:35.689Z,13.31
2019-02-20T12:04:23.256Z,13.37
2019-02-20T12:07:10.518Z,13.45
2019-02-20T12:09:58.890Z,13.51
2019-02-20T12:12:47.782Z,13.71
2019-02-20T12:15:49.889Z,13.77
2019-02-20T12:21:57.736Z,14.01
2019-02-20T12:24:45.127Z,13.83
2019-02-20T12:27:46.849Z,14.02
2019-02-20T12:30:33.925Z,15.42
2019-02-20T12:36:30.800Z,14.41
2019-02-20T12:39:18.503Z,14.43
2019-02-20T12:42:05.777Z,14.53
2019-02-20T12:44:53.043Z,14.65
2019-02-20T12:47:47.959Z,15.86
2019-02-20T12:53:56.576Z,14.58
2019-02-20T12:56:44.346Z,16.17
2019-02-20T12:59:31.118Z,15.30
2019-02-20T13:05:24.489Z,14.83
2019-02-20T13:08:11.831Z,14.72
2019-02-20T13:10:59.471Z,14.60
2019-02-20T13:13:46.792Z,14.63
2019-02-20T13:19:56.792Z,16.09
2019-02-20T13:22:56.967Z,15.07
2019-02-20T13:25:44.224Z,14.86
2019-02-20T13:28:45.910Z,14.59
2019-02-20T13:31:33.282Z,15.67
2019-02-20T13:34:20.597Z,15.70
2019-02-20T13:37:07.730Z,14.47
2019-02-20T13:46:08.156Z,14.09
2019-02-20T13:48:57.309Z,14.13
2019-02-20T13:51:42.926Z,14.13
2019-02-20T13:54:29.976Z,14.07
2019-02-20T13:57:17.666Z,14.06
2019-02-20T14:00:04.793Z,13.99
2019-02-20T14:02:52.071Z,13.93
2019-02-20T14:05:42.567Z,13.93
2019-02-20T14:08:30.710Z,13.92
2019-02-20T14:14:26.462Z,13.91
2019-02-20T14:17:13.844Z,13.88
2019-02-20T14:20:01.392Z,13.73
2019-02-20T14:25:55.346Z,13.62
2019-02-20T14:28:43.091Z,13.52
2019-02-20T14:31:30.305Z,14.46
2019-02-20T14:46:47.872Z,13.11
2019-02-20T14:49:35.313Z,12.94
2019-02-20T14:52:22.360Z,12.90
2019-02-20T14:58:30.302Z,12.74
2019-02-20T15:01:17.997Z,12.51
2019-02-20T15:04:05.483Z,12.36
2019-02-20T15:06:52.899Z,12.26
2019-02-20T15:09:40.352Z,13.20
2019-02-20T15:12:27.855Z,13.39
2019-02-20T15:15:15.170Z,13.44
2019-02-20T15:18:02.693Z,12.55
2019-02-20T15:20:51.535Z,12.36
2019-02-20T15:23:38.669Z,12.23
2019-02-20T15:29:32.452Z,11.93
2019-02-20T15:32:34.485Z,11.92
2019-02-20T15:38:28.084Z,11.82
2019-02-20T15:41:15.399Z,11.73
2019-02-20T15:44:02.924Z,11.66
2019-02-20T15:46:52.798Z,11.59
2019-02-20T15:53:01.535Z,11.38
2019-02-20T15:55:48.657Z,11.31
2019-02-20T15:58:35.743Z,11.22
2019-02-20T16:01:38.631Z,12.04
2019-02-20T16:04:26.853Z,11.34
2019-02-20T16:07:14.462Z,11.19
2019-02-20T16:13:09.114Z,10.97
2019-02-20T16:16:10.742Z,10.87
2019-02-20T16:18:57.968Z,10.78
2019-02-20T16:21:44.953Z,10.70
2019-02-20T16:24:32.312Z,10.62
2019-02-20T16:27:19.251Z,10.58
2019-02-20T16:30:06.453Z,10.51
2019-02-20T16:32:53.955Z,10.44
2019-02-20T16:35:55.887Z,10.38
2019-02-20T16:38:43.112Z,10.32
2019-02-20T16:47:45.530Z,10.16
2019-02-20T16:50:32.633Z,10.14
2019-02-20T16:53:21.165Z,10.11
2019-02-20T17:02:20.887Z,9.96
2019-02-20T17:08:14.382Z,9.88
2019-02-20T17:14:23.127Z,9.78
2019-02-20T17:17:10.501Z,10.61
2019-02-20T17:23:04.407Z,9.90
2019-02-20T17:25:59.193Z,9.83
2019-02-20T17:28:46.702Z,9.74
2019-02-20T17:31:33.837Z,9.69
2019-02-20T17:34:21.272Z,9.65
2019-02-20T17:43:28.784Z,9.51
2019-02-20T17:46:16.396Z,10.29
2019-02-20T17:49:03.608Z,10.49
2019-02-20T17:51:50.860Z,9.84
2019-02-20T17:54:37.758Z,9.68
2019-02-20T17:57:24.866Z,9.58
2019-02-20T18:00:12.519Z,9.51
2019-02-20T18:03:00.922Z,9.45
2019-02-20T18:05:48.236Z,10.21
2019-02-20T18:08:35.771Z,9.61
2019-02-20T18:11:23.388Z,9.47
2019-02-20T18:14:11.246Z,9.36
2019-02-20T18:16:59.369Z,9.27
2019-02-20T18:22:55.942Z,9.13
2019-02-20T18:28:49.841Z,9.92
2019-02-20T18:31:38.405Z,9.32
2019-02-20T18:34:24.460Z,9.17
2019-02-20T18:37:11.996Z,9.05
2019-02-20T18:39:59.404Z,8.99
2019-02-20T18:42:46.652Z,8.95
2019-02-20T18:45:34.118Z,8.91
2019-02-20T18:51:34.989Z,8.84
2019-02-20T18:54:22.423Z,8.80
2019-02-20T18:57:09.384Z,8.76
2019-02-20T18:59:56.746Z,8.72
2019-02-20T19:02:44.793Z,8.67
2019-02-20T19:12:00.371Z,8.57
2019-02-20T19:18:23.450Z,8.48
2019-02-20T19:21:16.430Z,8.46
2019-02-20T19:24:18.920Z,8.45
2019-02-20T19:27:29.867Z,8.40
2019-02-20T19:30:29.012Z,8.38
2019-02-20T19:33:31.160Z,8.36
2019-02-20T19:36:32.303Z,8.35
2019-02-20T19:39:34.901Z,8.33
2019-02-20T19:49:41.418Z,8.24
2019-02-20T19:52:37.933Z,8.24
2019-02-20T19:55:49.141Z,8.23
2019-02-20T20:02:10.067Z,8.48
2019-02-20T20:05:34.369Z,8.37
2019-02-20T20:11:53.876Z,8.17
2019-02-20T20:14:43.582Z,8.11
2019-02-20T20:24:00.253Z,8.80
2019-02-20T20:26:50.573Z,8.20
2019-02-20T20:30:05.495Z,8.08
2019-02-20T20:36:26.566Z,7.93
2019-02-20T20:39:13.806Z,7.90
2019-02-20T20:42:36.236Z,8.65
2019-02-20T20:45:26.516Z,8.89
2019-02-20T20:48:19.881Z,8.28
2019-02-20T20:51:35.296Z,8.14
2019-02-20T20:54:25.000Z,8.03
2019-02-20T21:01:13.933Z,7.88
2019-02-20T21:04:16.558Z,8.68
2019-02-20T21:07:43.620Z,8.06
2019-02-20T21:10:34.977Z,7.89
2019-02-20T21:13:41.509Z,7.82
2019-02-20T21:16:35.168Z,7.74
2019-02-20T21:22:54.384Z,7.87
2019-02-20T21:26:11.862Z,7.72
2019-02-20T21:28:59.067Z,7.57
2019-02-20T21:32:13.541Z,8.25
2019-02-20T21:35:07.433Z,7.57
2019-02-20T21:41:24.526Z,7.20
2019-02-20T21:44:17.497Z,7.89
2019-02-20T21:47:18.120Z,7.23
2019-02-20T21:57:04.497Z,6.79
2019-02-20T22:00:13.585Z,6.70
2019-02-20T22:03:04.503Z,6.62
2019-02-20T22:05:51.511Z,6.54
2019-02-20T22:08:45.301Z,6.47
2019-02-20T22:11:44.549Z,6.39
2019-02-20T22:14:38.154Z,6.32
2019-02-20T22:21:20.979Z,6.15
2019-02-20T22:27:30.727Z,6.00
2019-02-20T22:30:39.474Z,5.94
2019-02-20T22:33:44.430Z,5.86
2019-02-20T22:36:44.683Z,5.81
2019-02-20T22:40:15.079Z,5.75
2019-02-20T22:43:05.266Z,5.70
2019-02-20T22:45:58.969Z,5.67
2019-02-20T22:52:15.427Z,5.61
2019-02-20T22:55:26.469Z,5.58
2019-02-20T22:58:22.506Z,5.55
2019-02-20T23:01:22.673Z,5.54
2019-02-20T23:04:11.707Z,5.55
2019-02-20T23:07:12.847Z,5.55
2019-02-20T23:10:34.280Z,6.35
2019-02-20T23:13:36.613Z,6.63
2019-02-20T23:16:24.523Z,6.01
2019-02-20T23:19:12.502Z,5.89
2019-02-20T23:22:00.746Z,5.83
2019-02-20T23:31:03.754Z,5.59
2019-02-20T23:33:49.508Z,5.52
2019-02-20T23:36:37.843Z,5.42
2019-02-20T23:42:31.736Z,5.40
2019-02-20T23:45:18.882Z,5.24
2019-02-20T23:48:08.215Z,5.12
2019-02-20T23:57:08.462Z,4.91
2019-02-20T23:59:56.336Z,4.89
